Weather at Naha Airport

Public forecast

Using degrees Celsius for public forecast. Weather courtesy of forecast.io.

Closest aviation weather report (METAR) to Naha Airport

Closest report is Tawau Airport, 444.9 nm (823.9 km) W.

2022/12/03 03:00 (retrieved 37 minutes ago)

WBKW 030300Z VRB02KT 9999 FEW015CB SCT016 30/26 Q1008

Closest aviation forecast (TAF) to Naha Airport

Forecast is more than 12 hours old.

Closest forecast is Pohnpei International Airport, 1,963.2 nm (3,635.9 km) E.

2022/12/01 06:36 (retrieved 2 days ago)

TAF PTPN 010531Z 0106/0206 08011KT P6SM VCSH SCT018 SCT120